Time;durP1;ratioP1;P1;durP2;ratioP2;P2;SDS_P1;SDS_P2;PMS_P1;PMS_P2;Temp;Humidity;BMP_temperature;BMP_pressure;BME280_temperature;BME280_humidity;BME280_pressure;Samples;Min_cycle;Max_cycle;Signal;HPM_P1;HPM_P2
2021/07/31 00:01:05;207916.00;0.69;359.55;70478.00;0.23;122.59;;;;;23.10;1.00;;;;;;2270382;61;909;-89
2021/07/31 00:30:39;289059.00;0.96;499.11;68955.00;0.23;119.95;;;;;23.20;1.00;;;;;;2270468;61;911;-86
2021/07/31 00:33:06;355754.00;1.19;613.75;73981.00;0.25;128.64;;;;;23.30;1.00;;;;;;2500725;41;3872;31
2021/07/31 00:35:33;336585.00;1.12;580.80;66809.00;0.22;116.25;;;;;23.40;1.00;;;;;;2511777;55;4025;31
2021/07/31 00:38:00;511461.00;1.70;881.56;102613.00;0.34;178.08;;;;;23.50;1.00;;;;;;2503447;40;3643;31
2021/07/31 00:52:52;287455.00;0.96;496.35;4258.00;0.01;8.00;;;;;23.60;1.00;;;;;;2270344;61;980;-89
2021/07/31 01:02:42;197799.00;0.66;342.13;0.00;0.00;0.62;;;;;23.50;1.00;;;;;;2270079;61;965;-88
2021/07/31 01:12:36;78843.00;0.26;137.04;0.00;0.00;0.62;;;;;23.20;1.00;;;;;;2270658;61;924;-87
2021/07/31 01:49:40;83826.00;0.28;145.65;0.00;0.00;0.62;;;;;23.40;1.00;;;;;;2504399;55;3606;31
2021/07/31 01:57:10;45207.00;0.15;78.90;0.00;0.00;0.62;;;;;22.80;1.00;;;;;;2420011;41;3196;31
2021/07/31 02:09:29;0.00;0.00;0.62;0.00;0.00;0.62;;;;;23.30;1.00;;;;;;2270750;61;978;-86
2021/07/31 02:14:24;280906.00;0.94;485.10;69341.00;0.23;120.62;;;;;23.10;1.00;;;;;;2270600;61;1292;-87
2021/07/31 02:19:19;0.00;0.00;0.62;0.00;0.00;0.62;;;;;22.80;1.00;;;;;;2270964;61;1950;-86
2021/07/31 02:24:14;254516.00;0.85;439.72;55261.00;0.18;96.28;;;;;23.20;1.00;;;;;;2271043;61;1284;-86
2021/07/31 02:29:11;204936.00;0.68;354.42;63639.00;0.21;110.77;;;;;23.60;1.00;;;;;;2270552;61;1292;-88
2021/07/31 02:31:38;62011.00;0.21;107.95;0.00;0.00;0.62;;;;;23.80;1.00;;;;;;2262021;61;818;-88
2021/07/31 02:34:05;47675.00;0.16;83.17;0.00;0.00;0.62;;;;;23.90;1.00;;;;;;2256507;61;969;-88
2021/07/31 02:36:32;0.00;0.00;0.62;0.00;0.00;0.62;;;;;23.90;1.00;;;;;;2256590;61;829;-88
2021/07/31 02:41:26;189860.00;0.63;328.47;52734.00;0.18;91.91;;;;;24.00;1.00;;;;;;2270785;61;1348;-88
2021/07/31 02:43:54;0.00;0.00;0.62;0.00;0.00;0.62;;;;;24.10;1.00;;;;;;2268997;61;395;-89
2021/07/31 02:51:24;126993.00;0.42;220.14;0.00;0.00;0.62;;;;;24.10;1.00;;;;;;2266934;61;1266;-90
2021/07/31 03:31:20;119597688.00;398.66;69297680.00;151521.00;0.51;262.43;;;;;22.40;1.00;;;;;;2257461;61;1219;-84
2021/07/31 03:33:50;195415.00;0.65;338.03;0.00;0.00;0.62;;;;;22.40;1.00;;;;;;2256162;61;1427;-87
2021/07/31 03:36:18;264575.00;0.88;457.02;40210.00;0.13;70.25;;;;;22.30;1.00;;;;;;2251685;61;1164;-84
2021/07/31 03:38:47;286371.00;0.95;494.49;92901.00;0.31;161.32;;;;;22.30;1.00;;;;;;2252099;61;1981;-85
2021/07/31 03:41:27;302733.00;1.01;522.62;24278.00;0.08;42.68;;;;;22.30;1.00;;;;;;2242660;61;1089;-85
2021/07/31 03:44:02;311298.00;1.04;537.34;0.00;0.00;0.62;;;;;22.50;1.00;;;;;;2234614;62;1392;-85
2021/07/31 03:46:43;320503.00;1.07;553.16;38340.00;0.13;67.02;;;;;22.60;1.00;;;;;;2231048;62;1090;-85
2021/07/31 03:49:14;254284.00;0.85;439.32;38569.00;0.13;67.41;;;;;22.80;1.00;;;;;;2222957;62;1006;-85
2021/07/31 03:51:54;227097.00;0.76;392.55;0.00;0.00;0.62;;;;;22.80;1.00;;;;;;2222674;62;1143;-85
2021/07/31 03:54:29;262897.00;0.88;454.13;44236.00;0.15;77.22;;;;;22.90;1.00;;;;;;2219475;62;1391;-85
2021/07/31 03:57:00;356850.00;1.19;615.63;52911.00;0.18;92.22;;;;;23.00;1.00;;;;;;2211355;62;1324;-85
2021/07/31 03:59:29;339579.00;1.13;585.95;82649.00;0.28;143.61;;;;;23.00;1.00;;;;;;2207270;62;2016;-85
2021/07/31 04:02:07;383944.00;1.28;662.20;116962.00;0.39;202.84;;;;;23.10;1.00;;;;;;2203375;63;1108;-84
2021/07/31 04:04:41;444523.00;1.48;766.36;124254.00;0.41;215.42;;;;;22.70;1.00;;;;;;2205153;62;1325;-85
2021/07/31 04:07:10;529640.00;1.77;912.87;67076.00;0.22;116.71;;;;;22.80;1.00;;;;;;2207435;62;1262;-85
2021/07/31 04:09:40;936346.00;3.12;1620.05;104836.00;0.35;181.92;;;;;23.00;1.00;;;;;;2216550;62;1063;-85
2021/07/31 04:12:12;798760.00;2.66;1378.96;177925.00;0.59;307.92;;;;;23.00;1.00;;;;;;2220954;62;1108;-85
2021/07/31 04:14:50;1193282.00;3.98;2078.08;34178.00;0.11;59.81;;;;;22.80;1.00;;;;;;2224807;62;1469;-85
2021/07/31 04:17:22;862859.00;2.88;1490.98;162249.00;0.54;280.91;;;;;22.80;1.00;;;;;;2230526;62;1118;-85
2021/07/31 04:19:53;693506.00;2.31;1195.98;82101.00;0.27;142.67;;;;;22.90;1.00;;;;;;2239852;61;1939;-84
2021/07/31 04:22:21;509607.00;1.70;878.37;59456.00;0.20;103.54;;;;;23.00;1.00;;;;;;2234387;62;1108;-84
2021/07/31 04:27:21;1425112.00;4.75;2502.98;51850.00;0.17;90.39;;;;;22.20;1.00;;;;;;2256375;61;1682;-85
2021/07/31 04:29:52;148761.00;0.50;257.67;0.00;0.00;0.62;;;;;22.10;1.00;;;;;;2246839;61;1111;-85
2021/07/31 04:33:03;290039.00;0.97;500.80;79810.00;0.27;138.71;;;;;21.90;1.00;;;;;;2236892;62;1166;-86
2021/07/31 04:36:18;392737.00;1.31;677.32;40216.00;0.13;70.26;;;;;22.00;1.00;;;;;;2223742;62;1269;-85
2021/07/31 04:39:06;330687.00;1.10;570.67;87553.00;0.29;152.08;;;;;22.10;1.00;;;;;;2221007;62;1948;-85
2021/07/31 04:41:34;745127.00;2.48;1285.59;139378.00;0.46;241.50;;;;;22.30;1.00;;;;;;2224765;62;1117;-85
2021/07/31 04:44:10;118701360.00;395.67;67749888.00;104144.00;0.35;180.72;;;;;22.40;1.00;;;;;;2220616;62;1347;-85
2021/07/31 04:46:40;819721.00;2.73;1415.54;20509.00;0.07;36.15;;;;;22.50;1.00;;;;;;2214758;62;1222;-85
2021/07/31 04:49:11;759562.00;2.53;1310.69;118152.00;0.39;204.89;;;;;22.80;1.00;;;;;;2212127;62;1138;-85
2021/07/31 04:51:43;1845512.00;6.15;3311.78;304184.00;1.01;525.11;;;;;22.90;1.00;;;;;;2215391;62;1189;-85
2021/07/31 04:54:15;719148.00;2.40;1240.46;101405.00;0.34;176.00;;;;;22.80;1.00;;;;;;2213666;62;1335;-85
2021/07/31 04:56:42;820057.00;2.73;1416.13;102872.00;0.34;178.53;;;;;22.50;1.00;;;;;;2212062;62;1096;-85
2021/07/31 04:59:10;609822.00;2.03;1051.18;8340.00;0.03;15.07;;;;;22.40;1.00;;;;;;2208073;62;2024;-85
2021/07/31 05:01:37;672685.00;2.24;1159.90;44890.00;0.15;78.35;;;;;22.50;1.00;;;;;;2207176;62;1186;-85
2021/07/31 05:04:04;739227.00;2.46;1275.33;100081.00;0.33;173.71;;;;;22.50;1.00;;;;;;2203696;63;1387;-85
2021/07/31 05:06:32;815726.00;2.72;1408.56;86840.00;0.29;150.85;;;;;22.60;1.00;;;;;;2208084;62;1184;-85
2021/07/31 05:09:01;1046730.00;3.49;1815.41;158957.00;0.53;275.24;;;;;22.80;1.00;;;;;;2215720;62;1111;-85
2021/07/31 05:11:29;1201220.00;4.00;2092.43;157876.00;0.53;273.38;;;;;22.90;1.00;;;;;;2215844;62;1341;-85
2021/07/31 05:13:58;1018003.00;3.39;1764.38;158932.00;0.53;275.20;;;;;23.10;1.00;;;;;;2216539;62;1307;-85
2021/07/31 05:16:28;467157.00;1.56;805.30;13477.00;0.04;23.97;;;;;23.10;1.00;;;;;;2223433;62;952;-85
2021/07/31 05:18:55;589103.00;1.96;1015.41;48544.00;0.16;84.67;;;;;23.30;1.00;;;;;;2223743;62;2025;-85
2021/07/31 05:21:23;705870.00;2.35;1217.42;17434.00;0.06;30.83;;;;;23.00;1.00;;;;;;2219372;62;1182;-85
2021/07/31 05:23:50;707177.00;2.36;1219.69;125506.00;0.42;217.58;;;;;23.00;1.00;;;;;;2219564;62;1384;-85
2021/07/31 05:29:00;0.00;0.00;0.62;0.00;0.00;0.62;;;;;23.40;1.00;;;;;;2223775;62;1038;-85
2021/07/31 05:31:29;229782.00;0.77;397.17;88568.00;0.30;153.83;;;;;23.60;1.00;;;;;;2222955;62;1173;-86
2021/07/31 05:33:56;167393.00;0.56;289.78;0.00;0.00;0.62;;;;;23.60;1.00;;;;;;2223451;62;1267;-86
2021/07/31 05:36:28;23441.00;0.08;41.23;0.00;0.00;0.62;;;;;23.70;1.00;;;;;;2219083;62;1181;-86
2021/07/31 05:38:58;145251.00;0.48;251.62;0.00;0.00;0.62;;;;;24.00;1.00;;;;;;2222512;62;2049;-85
2021/07/31 05:41:27;302803.00;1.01;522.74;57369.00;0.19;99.93;;;;;23.80;1.00;;;;;;2220252;62;1095;-84
2021/07/31 05:43:54;1624678.00;5.42;2879.99;267152.00;0.89;461.45;;;;;24.00;1.00;;;;;;2223242;62;1691;-86
2021/07/31 05:46:21;1378326.00;4.59;2416.19;144401.00;0.48;250.16;;;;;25.10;1.00;;;;;;2215986;62;1201;-86
2021/07/31 05:48:50;603444.00;2.01;1040.17;97553.00;0.33;169.35;;;;;26.80;1.00;;;;;;2212459;62;1145;-86
2021/07/31 05:51:18;747446.00;2.49;1289.62;11545.00;0.04;20.63;;;;;28.20;1.00;;;;;;2208558;62;1103;-86
2021/07/31 05:53:45;872779.00;2.91;1508.36;82800.00;0.28;143.87;;;;;29.90;1.00;;;;;;2208537;62;1360;-87
2021/07/31 05:56:13;863098.00;2.88;1491.40;147182.00;0.49;254.95;;;;;30.90;1.00;;;;;;2212579;62;1128;-87
2021/07/31 05:58:42;853800.00;2.85;1475.12;78967.00;0.26;137.25;;;;;30.80;1.00;;;;;;2216381;62;1161;-87
2021/07/31 06:01:09;1291516.00;4.31;2256.59;139923.00;0.47;242.44;;;;;31.00;1.00;;;;;;2216277;62;2012;-86
2021/07/31 06:03:38;811054.00;2.70;1400.41;134890.00;0.45;233.76;;;;;31.10;1.00;;;;;;2217092;62;1292;-86
2021/07/31 06:06:05;793268.00;2.64;1369.39;68399.00;0.23;118.99;;;;;31.00;1.00;;;;;;2221233;62;1150;-86
2021/07/31 06:08:34;780973.00;2.60;1347.96;105600.00;0.35;183.24;;;;;32.00;1.00;;;;;;2219787;62;1100;-84
2021/07/31 06:11:02;1065566.00;3.55;1848.95;184480.00;0.61;319.20;;;;;33.30;1.00;;;;;;2217298;62;1151;-87
2021/07/31 06:13:32;923023.00;3.08;1596.59;172177.00;0.57;298.02;;;;;33.60;1.00;;;;;;2212055;62;1320;-85
2021/07/31 06:16:02;1796905.00;5.99;3215.30;428935.00;1.43;739.55;;;;;34.10;1.00;;;;;;2210789;62;1152;-85
2021/07/31 06:18:29;1601517.00;5.34;2835.64;304845.00;1.02;526.25;;;;;34.30;1.00;;;;;;2208586;62;1148;-85
2021/07/31 06:20:56;945899.00;3.15;1636.88;165955.00;0.55;287.30;;;;;34.00;1.00;;;;;;2215522;62;2028;-85
2021/07/31 06:23:24;457444.00;1.52;788.59;131395.00;0.44;227.73;;;;;33.50;1.00;;;;;;2217086;62;1401;-85
2021/07/31 06:25:51;414294.00;1.38;714.38;134867.00;0.45;233.72;;;;;33.10;1.00;;;;;;2224879;62;1213;-85
2021/07/31 06:28:21;402926.00;1.34;694.84;111122.00;0.37;192.77;;;;;32.90;1.00;;;;;;2223620;62;1329;-85
2021/07/31 06:30:49;381436.00;1.27;657.89;99998.00;0.33;173.57;;;;;33.20;1.00;;;;;;2227442;62;963;-85
2021/07/31 06:33:17;428045.00;1.43;738.02;99406.00;0.33;172.55;;;;;33.20;1.00;;;;;;2227558;62;1292;-85
2021/07/31 06:35:44;558739.00;1.86;963.03;179019.00;0.60;309.80;;;;;34.20;1.00;;;;;;2227218;62;1234;-85
2021/07/31 06:38:12;435005.00;1.45;749.99;142282.00;0.47;246.50;;;;;33.60;1.00;;;;;;2223492;62;1182;-85
2021/07/31 06:40:39;646080.00;2.15;1113.85;207791.00;0.69;359.33;;;;;33.90;1.00;;;;;;2219739;62;2047;-87
2021/07/31 06:43:06;773659.00;2.58;1335.22;214488.00;0.71;370.86;;;;;34.60;1.00;;;;;;2222235;62;1279;-87
2021/07/31 06:45:33;414330.00;1.38;714.44;129756.00;0.43;224.91;;;;;35.10;1.00;;;;;;2219020;62;1106;-87
2021/07/31 06:48:01;375784.00;1.25;648.18;78277.00;0.26;136.06;;;;;34.80;1.00;;;;;;2218203;62;1327;-87
2021/07/31 06:50:30;499182.00;1.66;860.42;167152.00;0.56;289.36;;;;;34.90;1.00;;;;;;2210251;62;1202;-87
2021/07/31 06:52:57;391681.00;1.31;675.50;141144.00;0.47;244.54;;;;;35.30;1.00;;;;;;2211399;62;1316;-88
2021/07/31 06:55:24;214557.00;0.72;370.98;72817.00;0.24;126.63;;;;;35.80;1.00;;;;;;2218709;62;1082;-88
2021/07/31 06:57:51;117794576.00;392.65;66207676.00;117350424.00;391.17;65460924.00;;;;;36.30;1.00;;;;;;2209364;62;1144;-87
2021/07/31 07:00:20;185522.00;0.62;321.00;22560.00;0.08;39.70;;;;;36.30;1.00;;;;;;2207597;62;2014;-86
2021/07/31 07:02:47;203366.00;0.68;351.72;41971.00;0.14;73.30;;;;;36.00;1.00;;;;;;2200232;62;1412;-86
2021/07/31 07:05:16;145978.00;0.49;252.88;0.00;0.00;0.62;;;;;36.20;1.00;;;;;;2208066;62;1113;-86
2021/07/31 07:07:44;310500.00;1.03;535.97;0.00;0.00;0.62;;;;;36.20;1.00;;;;;;2216145;62;1194;-86
2021/07/31 07:10:13;130978.00;0.44;227.02;0.00;0.00;0.62;;;;;36.40;1.00;;;;;;2222325;62;1131;-85
2021/07/31 07:12:41;58322.00;0.19;101.58;0.00;0.00;0.62;;;;;36.90;1.00;;;;;;2223119;62;1118;-85
2021/07/31 07:15:09;217479.00;0.72;376.01;0.00;0.00;0.62;;;;;37.10;1.00;;;;;;2228076;62;1148;-86
2021/07/31 07:17:36;290094.00;0.97;500.89;58389.00;0.19;101.69;;;;;36.20;1.00;;;;;;2239181;62;1121;-86
2021/07/31 07:20:03;42779.00;0.14;74.70;0.00;0.00;0.62;;;;;36.80;1.00;;;;;;2238413;61;1927;-86
2021/07/31 07:22:31;0.00;0.00;0.62;0.00;0.00;0.62;;;;;36.40;1.00;;;;;;2243046;61;1136;-86
2021/07/31 07:24:59;34641.00;0.12;60.62;0.00;0.00;0.62;;;;;36.90;1.00;;;;;;2242728;61;1454;-86
2021/07/31 07:27:26;79368.00;0.26;137.95;0.00;0.00;0.62;;;;;36.70;1.00;;;;;;2243034;61;1114;-86
2021/07/31 07:29:55;365143.00;1.22;629.89;135992.00;0.45;235.66;;;;;36.70;1.00;;;;;;2242517;61;1253;-86
2021/07/31 07:32:22;0.00;0.00;0.62;0.00;0.00;0.62;;;;;36.60;1.00;;;;;;2242571;61;1664;-87
2021/07/31 07:34:49;8863.00;0.03;15.98;0.00;0.00;0.62;;;;;36.30;1.00;;;;;;2242545;61;1338;-87
2021/07/31 07:37:16;0.00;0.00;0.62;0.00;0.00;0.62;;;;;36.20;1.00;;;;;;2243036;61;1676;-86
2021/07/31 07:39:43;0.00;0.00;0.62;0.00;0.00;0.62;;;;;36.10;1.00;;;;;;2251693;61;1944;-86
2021/07/31 07:42:11;205091.00;0.68;354.69;0.00;0.00;0.62;;;;;36.00;1.00;;;;;;2247288;61;1181;-86
2021/07/31 07:44:38;0.00;0.00;0.62;0.00;0.00;0.62;;;;;35.80;1.00;;;;;;2242772;61;1404;-86
2021/07/31 07:47:05;0.00;0.00;0.62;0.00;0.00;0.62;;;;;35.70;1.00;;;;;;2242670;61;998;-86
2021/07/31 07:49:32;0.00;0.00;0.62;0.00;0.00;0.62;;;;;35.70;1.00;;;;;;2242827;61;1228;-86
2021/07/31 07:51:59;96133.00;0.32;166.90;0.00;0.00;0.62;;;;;34.70;1.00;;;;;;2243651;61;1156;-86
2021/07/31 07:54:28;0.00;0.00;0.62;0.00;0.00;0.62;;;;;34.70;1.00;;;;;;2250146;61;1433;-90
2021/07/31 07:56:55;158416.00;0.53;274.31;0.00;0.00;0.62;;;;;34.10;1.00;;;;;;2251022;61;1023;-91
2021/07/31 07:59:23;0.00;0.00;0.62;0.00;0.00;0.62;;;;;33.20;1.00;;;;;;2251592;61;922;-90
2021/07/31 08:01:50;63686.00;0.21;110.85;0.00;0.00;0.62;;;;;33.00;1.00;;;;;;2251273;61;1941;-90
2021/07/31 08:04:17;183335.00;0.61;317.23;0.00;0.00;0.62;;;;;31.90;1.00;;;;;;2252091;61;1315;-90
2021/07/31 08:06:44;0.00;0.00;0.62;0.00;0.00;0.62;;;;;30.80;1.00;;;;;;2252932;61;1018;-90
2021/07/31 08:09:11;0.00;0.00;0.62;0.00;0.00;0.62;;;;;30.30;1.00;;;;;;2256113;61;1132;-89
2021/07/31 08:11:42;85251.00;0.28;148.11;0.00;0.00;0.62;;;;;30.90;1.00;;;;;;2256001;61;1016;-90
2021/07/31 08:14:09;180121.00;0.60;311.70;44919.00;0.15;78.40;;;;;31.40;1.00;;;;;;2255934;61;1407;-91
2021/07/31 08:16:38;24558.00;0.08;43.16;0.00;0.00;0.62;;;;;31.40;1.00;;;;;;2255990;61;996;-90
2021/07/31 08:19:06;0.00;0.00;0.62;0.00;0.00;0.62;;;;;31.40;1.00;;;;;;2255863;61;1094;-90
2021/07/31 08:21:33;0.00;0.00;0.62;0.00;0.00;0.62;;;;;31.90;1.00;;;;;;2255903;61;1916;-90
2021/07/31 08:24:00;89347.00;0.30;155.18;0.00;0.00;0.62;;;;;32.40;1.00;;;;;;2255895;61;1668;-90
2021/07/31 08:26:27;0.00;0.00;0.62;0.00;0.00;0.62;;;;;33.30;1.00;;;;;;2256000;61;1125;-90
2021/07/31 08:28:54;162256.00;0.54;280.93;0.00;0.00;0.62;;;;;32.80;1.00;;;;;;2255969;61;1682;-90
2021/07/31 08:31:21;8719.00;0.03;15.73;0.00;0.00;0.62;;;;;33.00;1.00;;;;;;2256024;61;1127;-91
2021/07/31 08:33:49;3272.00;0.01;6.29;0.00;0.00;0.62;;;;;32.20;1.00;;;;;;2255890;61;1320;-90
2021/07/31 08:36:16;0.00;0.00;0.62;0.00;0.00;0.62;;;;;31.40;1.00;;;;;;2256070;61;983;-89
2021/07/31 08:38:43;92519.00;0.31;160.66;0.00;0.00;0.62;;;;;31.10;1.00;;;;;;2256015;61;1022;-91
2021/07/31 08:41:10;38643.00;0.13;67.54;0.00;0.00;0.62;;;;;30.80;1.00;;;;;;2255957;61;2003;-90
2021/07/31 08:43:37;30877.00;0.10;54.10;0.00;0.00;0.62;;;;;30.90;1.00;;;;;;2255884;61;1408;-90
2021/07/31 08:46:09;24635.00;0.08;43.30;0.00;0.00;0.62;;;;;31.60;1.00;;;;;;2255939;61;964;-90
2021/07/31 08:48:38;158490.00;0.53;274.44;0.00;0.00;0.62;;;;;31.30;1.00;;;;;;2255928;61;1102;-90
2021/07/31 08:51:07;146689.00;0.49;254.10;47807.00;0.16;83.39;;;;;30.40;1.00;;;;;;2255974;61;1017;-90
2021/07/31 08:53:34;0.00;0.00;0.62;0.00;0.00;0.62;;;;;31.40;1.00;;;;;;2255831;61;1443;-89
2021/07/31 08:56:02;145116.00;0.48;251.39;0.00;0.00;0.62;;;;;32.20;1.00;;;;;;2255834;61;1124;-88
2021/07/31 08:58:29;0.00;0.00;0.62;0.00;0.00;0.62;;;;;31.90;1.00;;;;;;2255732;61;1050;-89
2021/07/31 09:00:57;165714.00;0.55;286.88;50911.00;0.17;88.76;;;;;32.40;1.00;;;;;;2255896;61;1989;-88
2021/07/31 09:03:24;34811.00;0.12;60.91;0.00;0.00;0.62;;;;;32.10;1.00;;;;;;2255794;61;1413;-89
2021/07/31 09:05:52;33469.00;0.11;58.59;0.00;0.00;0.62;;;;;31.40;1.00;;;;;;2255851;61;956;-89
2021/07/31 09:08:20;0.00;0.00;0.62;0.00;0.00;0.62;;;;;31.60;1.00;;;;;;2255871;61;1086;-90
2021/07/31 09:10:48;22689.00;0.08;39.93;0.00;0.00;0.62;;;;;31.40;1.00;;;;;;2255823;61;1131;-86
2021/07/31 09:13:17;0.00;0.00;0.62;0.00;0.00;0.62;;;;;31.50;1.00;;;;;;2255843;61;1383;-89
2021/07/31 09:15:45;184038.00;0.61;318.44;49628.00;0.17;86.54;;;;;31.50;1.00;;;;;;2255857;61;1103;-90
2021/07/31 09:18:29;85852.00;0.29;149.14;0.00;0.00;0.62;;;;;32.00;1.00;;;;;;2255873;61;966;-90
2021/07/31 09:21:01;0.00;0.00;0.62;0.00;0.00;0.62;;;;;31.50;1.00;;;;;;2255790;61;2019;-89
2021/07/31 09:23:45;7215.00;0.02;13.12;0.00;0.00;0.62;;;;;31.30;1.00;;;;;;2255804;61;1500;-88
2021/07/31 09:26:14;170427.00;0.57;295.00;64136.00;0.21;111.63;;;;;30.80;1.00;;;;;;2255846;61;1082;-89
2021/07/31 09:28:42;168975.00;0.56;292.50;65472.00;0.22;113.94;;;;;29.80;1.00;;;;;;2255886;61;978;-89
2021/07/31 09:31:14;197704.00;0.66;341.97;60375.00;0.20;105.13;;;;;29.00;1.00;;;;;;2256605;61;1054;-89
2021/07/31 09:33:45;308188.00;1.03;531.99;112728.00;0.38;195.54;;;;;28.50;1.00;;;;;;2256530;61;1397;-89
2021/07/31 09:36:12;377121.00;1.26;650.48;133196.00;0.44;230.84;;;;;28.10;1.00;;;;;;2256574;61;1064;-89
2021/07/31 09:38:43;168785.00;0.56;292.17;62634.00;0.21;109.03;;;;;28.10;1.00;;;;;;2256626;61;1063;-89
2021/07/31 09:41:32;109426.00;0.36;189.84;0.00;0.00;0.62;;;;;27.60;1.00;;;;;;2256579;61;1920;-89
2021/07/31 09:44:07;336092.00;1.12;579.96;63077.00;0.21;109.80;;;;;27.30;1.00;;;;;;2256394;61;1401;-89
2021/07/31 09:46:37;196822.00;0.66;340.45;76812.00;0.26;133.53;;;;;28.20;1.00;;;;;;2256542;61;1123;-88
2021/07/31 09:49:05;171393.00;0.57;296.67;65311.00;0.22;113.66;;;;;28.90;1.00;;;;;;2256482;61;918;-89
2021/07/31 09:51:33;217013.00;0.72;375.20;67129.00;0.22;116.80;;;;;29.40;1.00;;;;;;2256566;61;1106;-89
2021/07/31 09:54:05;482511.00;1.61;831.72;166441.00;0.55;288.14;;;;;29.30;1.00;;;;;;2256467;61;1532;-89
2021/07/31 09:56:41;211225.00;0.70;365.24;64530.00;0.22;112.31;;;;;28.70;1.00;;;;;;2256594;61;1116;-88
2021/07/31 09:59:10;185201.00;0.62;320.45;70238.00;0.23;122.17;;;;;29.00;1.00;;;;;;2256496;61;991;-89
2021/07/31 10:01:38;206129.00;0.69;356.47;61261.00;0.20;106.66;;;;;29.30;1.00;;;;;;2256475;61;2000;-89
2021/07/31 10:04:06;196346.00;0.65;339.63;59152.00;0.20;103.01;;;;;29.60;1.00;;;;;;2256413;61;1319;-89
2021/07/31 10:06:34;231294.00;0.77;399.77;64186.00;0.21;111.71;;;;;29.30;1.00;;;;;;2256405;61;1161;-89
2021/07/31 10:09:04;567272.00;1.89;977.74;141976.00;0.47;245.98;;;;;28.80;1.00;;;;;;2256514;61;1097;-90
2021/07/31 10:11:33;428298.00;1.43;738.46;142882.00;0.48;247.54;;;;;28.80;1.00;;;;;;2256490;61;975;-88
2021/07/31 10:14:00;289948.00;0.97;500.64;63683.00;0.21;110.84;;;;;28.20;1.00;;;;;;2256463;61;1348;-89
2021/07/31 10:16:28;211223.00;0.70;365.24;65279.00;0.22;113.60;;;;;28.00;1.00;;;;;;2256427;61;1131;-89
2021/07/31 10:18:57;291861.00;0.97;503.93;65021.00;0.22;113.16;;;;;28.40;1.00;;;;;;2256382;61;1090;-89
2021/07/31 10:21:26;194751.00;0.65;336.89;63275.00;0.21;110.14;;;;;28.60;1.00;;;;;;2256464;61;1990;-91
2021/07/31 10:24:06;282368.00;0.94;487.61;108999.00;0.36;189.10;;;;;28.40;1.00;;;;;;2256432;61;1467;-88
2021/07/31 10:26:35;181816.00;0.61;314.62;63351.00;0.21;110.27;;;;;27.80;1.00;;;;;;2256575;61;1056;-90
2021/07/31 10:29:40;0.00;0.00;0.62;0.00;0.00;0.62;;;;;28.00;1.00;;;;;;2256516;61;982;-89
2021/07/31 10:32:35;292266.00;0.97;504.62;62074.00;0.21;108.06;;;;;28.60;1.00;;;;;;2256518;61;924;-89
2021/07/31 10:35:04;214814.00;0.72;371.42;80218.00;0.27;139.41;;;;;28.90;1.00;;;;;;2256419;61;1547;-89
2021/07/31 10:37:46;175684.00;0.59;304.06;39556.00;0.13;69.12;;;;;29.00;1.00;;;;;;2256271;61;1749;-89
2021/07/31 10:40:56;185556.00;0.62;321.06;0.00;0.00;0.62;;;;;29.40;1.00;;;;;;2256352;61;1095;-90
2021/07/31 10:43:25;171530.00;0.57;296.90;45958.00;0.15;80.20;;;;;29.60;1.00;;;;;;2256312;61;1357;-89
2021/07/31 10:46:25;37610.00;0.13;65.75;0.00;0.00;0.62;;;;;29.90;1.00;;;;;;2256447;61;1127;-90
2021/07/31 10:48:52;0.00;0.00;0.62;0.00;0.00;0.62;;;;;29.70;1.00;;;;;;2256375;61;1074;-89
2021/07/31 10:51:41;0.00;0.00;0.62;0.00;0.00;0.62;;;;;29.80;1.00;;;;;;2256485;61;993;-89
2021/07/31 10:54:08;110072.00;0.37;190.95;0.00;0.00;0.62;;;;;29.20;1.00;;;;;;2254261;61;1528;-89
2021/07/31 10:56:58;0.00;0.00;0.62;0.00;0.00;0.62;;;;;29.40;1.00;;;;;;2256322;61;1194;-89
2021/07/31 10:59:26;35672.00;0.12;62.40;0.00;0.00;0.62;;;;;29.30;1.00;;;;;;2256265;61;1133;-89
2021/07/31 11:02:31;0.00;0.00;0.62;0.00;0.00;0.62;;;;;29.00;1.00;;;;;;2256122;61;2000;-89
2021/07/31 11:04:59;100475.00;0.33;174.39;0.00;0.00;0.62;;;;;28.70;1.00;;;;;;2256186;61;1377;-88
2021/07/31 11:07:27;7435.00;0.02;13.51;0.00;0.00;0.62;;;;;28.60;1.00;;;;;;2256075;61;1122;-89
2021/07/31 11:10:31;22907.00;0.08;40.30;0.00;0.00;0.62;;;;;28.40;1.00;;;;;;2256164;61;1120;-89
2021/07/31 11:12:58;72916.00;0.24;126.80;0.00;0.00;0.62;;;;;29.10;1.00;;;;;;2256174;61;1715;-88
2021/07/31 11:15:27;0.00;0.00;0.62;0.00;0.00;0.62;;;;;29.40;1.00;;;;;;2256237;61;1040;-88
2021/07/31 11:17:57;0.00;0.00;0.62;0.00;0.00;0.62;;;;;29.50;1.00;;;;;;2256294;61;1107;-89
2021/07/31 11:20:29;0.00;0.00;0.62;0.00;0.00;0.62;;;;;29.10;1.00;;;;;;2256271;61;1094;-89
2021/07/31 11:22:57;60575.00;0.20;105.47;0.00;0.00;0.62;;;;;29.00;1.00;;;;;;2256205;61;1996;-90
2021/07/31 11:25:25;292434.00;0.97;504.91;0.00;0.00;0.62;;;;;29.10;1.00;;;;;;2256281;61;993;-89
2021/07/31 11:27:56;172373.00;0.57;298.35;0.00;0.00;0.62;;;;;29.00;1.00;;;;;;2256260;61;1234;-89
2021/07/31 11:30:35;71745.00;0.24;124.78;0.00;0.00;0.62;;;;;28.80;1.00;;;;;;2256236;61;999;-89
2021/07/31 11:33:17;0.00;0.00;0.62;0.00;0.00;0.62;;;;;28.40;1.00;;;;;;2256182;61;1411;-89
2021/07/31 11:35:44;100706.00;0.34;174.79;0.00;0.00;0.62;;;;;28.90;1.00;;;;;;2256065;61;1184;-91
2021/07/31 11:38:41;206916.00;0.69;357.83;0.00;0.00;0.62;;;;;28.90;1.00;;;;;;2256121;61;1014;-88
2021/07/31 11:41:10;164580.00;0.55;284.93;0.00;0.00;0.62;;;;;27.70;1.00;;;;;;2235835;61;1929;-89
2021/07/31 11:43:45;306179.00;1.02;528.54;43430.00;0.14;75.82;;;;;27.50;1.00;;;;;;2246539;61;1593;-88
2021/07/31 11:46:31;156992.00;0.52;271.86;0.00;0.00;0.62;;;;;27.80;1.00;;;;;;2256143;61;1104;-90
2021/07/31 11:49:00;94655.00;0.32;164.34;0.00;0.00;0.62;;;;;28.10;1.00;;;;;;2256139;61;1134;-89
2021/07/31 11:51:28;67083.00;0.22;116.72;0.00;0.00;0.62;;;;;28.70;1.00;;;;;;2256062;61;963;-89
2021/07/31 11:53:55;17594.00;0.06;31.10;0.00;0.00;0.62;;;;;29.00;1.00;;;;;;2255635;61;1387;-90
2021/07/31 11:56:24;65047.00;0.22;113.20;0.00;0.00;0.62;;;;;29.20;1.00;;;;;;2256055;61;1153;-90
2021/07/31 11:58:53;0.00;0.00;0.62;0.00;0.00;0.62;;;;;29.60;1.00;;;;;;2256102;61;1106;-89
2021/07/31 12:01:22;14475.00;0.05;25.70;0.00;0.00;0.62;;;;;29.90;1.00;;;;;;2256074;61;1989;-89
2021/07/31 12:03:50;189105.00;0.63;327.17;0.00;0.00;0.62;;;;;29.40;1.00;;;;;;2256075;61;1627;-91
2021/07/31 12:06:39;42025.00;0.14;73.39;0.00;0.00;0.62;;;;;29.40;1.00;;;;;;2256076;61;1555;-89
2021/07/31 12:09:08;2975.00;0.01;5.78;0.00;0.00;0.62;;;;;29.10;1.00;;;;;;2255238;61;1190;-89
2021/07/31 12:11:43;66123.00;0.22;115.06;0.00;0.00;0.62;;;;;29.40;1.00;;;;;;2256051;61;1042;-89
2021/07/31 12:14:31;199235.00;0.66;344.61;0.00;0.00;0.62;;;;;29.80;1.00;;;;;;2256019;61;1507;-89
2021/07/31 12:17:22;0.00;0.00;0.62;0.00;0.00;0.62;;;;;29.80;1.00;;;;;;2256010;61;1201;-88
2021/07/31 12:19:54;100221.00;0.33;173.95;0.00;0.00;0.62;;;;;29.80;1.00;;;;;;2256060;61;1087;-88
2021/07/31 12:22:24;60465.00;0.20;105.28;0.00;0.00;0.62;;;;;29.50;1.00;;;;;;2255949;61;1997;-89
2021/07/31 12:25:09;184461.00;0.61;319.17;29149.00;0.10;51.11;;;;;29.10;1.00;;;;;;2255650;61;1398;-88
2021/07/31 12:27:55;24843.00;0.08;43.66;0.00;0.00;0.62;;;;;28.50;1.00;;;;;;2255457;61;1623;-89
2021/07/31 12:30:27;88171.00;0.29;153.15;0.00;0.00;0.62;;;;;29.00;1.00;;;;;;2253571;61;1471;-90
2021/07/31 12:32:56;188107.00;0.63;325.45;0.00;0.00;0.62;;;;;29.50;1.00;;;;;;2255632;61;1800;-87
2021/07/31 12:35:38;135230.00;0.45;234.35;27064.00;0.09;47.50;;;;;29.00;1.00;;;;;;2255827;61;1106;-89
2021/07/31 13:00:19;0.00;0.00;0.62;0.00;0.00;0.62;;;;;30.60;1.00;;;;;;2270525;61;1165;-89
2021/07/31 13:24:59;0.00;0.00;0.62;0.00;0.00;0.62;;;;;31.70;1.00;;;;;;2270805;61;1015;-89
2021/07/31 14:19:27;0.00;0.00;0.62;0.00;0.00;0.62;;;;;30.10;1.00;;;;;;2270732;61;1336;-87
2021/07/31 14:21:54;98946.00;0.33;171.75;0.00;0.00;0.62;;;;;30.20;1.00;;;;;;2265250;61;2010;-87
2021/07/31 14:24:21;30233.00;0.10;52.99;0.00;0.00;0.62;;;;;30.20;1.00;;;;;;2260500;61;901;-87